createdAt,value
2019-02-20T00:03:09.287Z,966.3
2019-02-20T00:13:12.809Z,966.4
2019-02-20T00:23:16.348Z,966.8
2019-02-20T00:33:19.905Z,966.8
2019-02-20T00:43:23.448Z,966.8
2019-02-20T00:53:26.985Z,966.8
2019-02-20T01:03:30.482Z,967.1
2019-02-20T01:13:34.114Z,967.4
2019-02-20T01:23:37.634Z,967.4
2019-02-20T01:33:41.152Z,967.4
2019-02-20T01:43:44.669Z,967.5
2019-02-20T01:53:48.169Z,967.5
2019-02-20T02:03:51.644Z,967.5
2019-02-20T02:13:55.203Z,967.8
2019-02-20T02:23:58.780Z,968
2019-02-20T02:34:02.302Z,967.8
2019-02-20T02:44:05.847Z,967.7
2019-02-20T02:54:09.380Z,967.8
2019-02-20T03:04:12.914Z,968
2019-02-20T03:14:16.473Z,968.3
2019-02-20T03:24:20.022Z,968.3
2019-02-20T03:34:23.584Z,968.4
2019-02-20T03:44:27.157Z,968.5
2019-02-20T03:54:30.679Z,968.7
2019-02-20T04:04:34.233Z,968.7
2019-02-20T04:14:37.911Z,968.7
2019-02-20T04:24:41.453Z,968.8
2019-02-20T04:34:44.956Z,969.2
2019-02-20T04:44:48.514Z,969.2
2019-02-20T04:54:52.036Z,969.4
2019-02-20T05:04:55.600Z,969.6
2019-02-20T05:14:59.142Z,969.6
2019-02-20T05:25:02.618Z,969.6
2019-02-20T05:35:06.173Z,969.7
2019-02-20T05:45:09.688Z,969.8
2019-02-20T05:55:13.211Z,969.8
2019-02-20T06:05:16.703Z,969.9
2019-02-20T06:15:20.233Z,969.7
2019-02-20T06:25:23.780Z,965.2
2019-02-20T06:35:27.357Z,971.1
2019-02-20T06:45:30.856Z,970
2019-02-20T06:55:34.397Z,969.5
2019-02-20T07:05:37.899Z,969.1
2019-02-20T07:15:41.391Z,968.7
2019-02-20T07:25:44.937Z,968.4
2019-02-20T07:35:48.469Z,968
2019-02-20T07:45:51.970Z,967.8
2019-02-20T07:55:55.484Z,967.7
2019-02-20T08:05:58.971Z,967.6
2019-02-20T08:16:02.527Z,967.5
2019-02-20T08:26:06.039Z,967.3
2019-02-20T08:36:09.541Z,967
2019-02-20T08:46:13.047Z,966.9
2019-02-20T08:56:16.543Z,966.7
2019-02-20T09:06:20.027Z,966.4
2019-02-20T09:16:23.556Z,966.2
2019-02-20T09:26:27.074Z,966.1
2019-02-20T09:36:30.581Z,965.9
2019-02-20T09:46:34.083Z,965.8
2019-02-20T09:56:37.563Z,965.7
2019-02-20T10:06:41.061Z,965.6
2019-02-20T10:16:44.617Z,965.4
2019-02-20T10:26:48.151Z,965.5
2019-02-20T10:36:51.698Z,965.4
2019-02-20T10:46:55.203Z,972.6
2019-02-20T10:56:58.705Z,972.5
2019-02-20T11:07:03.253Z,972.3
2019-02-20T11:17:06.754Z,972.1
2019-02-20T11:27:10.251Z,972
2019-02-20T11:37:13.809Z,971.9
2019-02-20T11:47:17.420Z,971.8
2019-02-20T11:57:20.919Z,969.4
2019-02-20T12:07:24.410Z,970.6
2019-02-20T12:17:27.904Z,967.6
2019-02-20T12:27:33.371Z,966.7
2019-02-20T12:37:36.940Z,965.9
2019-02-20T12:47:40.468Z,965.4
2019-02-20T12:57:43.978Z,965.2
2019-02-20T13:07:47.489Z,972.2
2019-02-20T13:27:59.572Z,971.8
2019-02-20T13:48:19.606Z,971.5
2019-02-20T13:58:24.159Z,971.6
2019-02-20T14:29:14.852Z,971.5
